sensor_id;sensor_type;location;lat;lon;timestamp;temperature;humidity
21582;DHT22;10952;50.836;4.348;2023-04-24T00:00:01;10.80;99.90
21582;DHT22;10952;50.836;4.348;2023-04-24T00:02:26;10.80;99.90
21582;DHT22;10952;50.836;4.348;2023-04-24T00:04:52;10.80;99.90
21582;DHT22;10952;50.836;4.348;2023-04-24T00:07:18;10.80;99.90
21582;DHT22;10952;50.836;4.348;2023-04-24T00:09:45;10.80;99.90
21582;DHT22;10952;50.836;4.348;2023-04-24T00:12:11;10.80;99.90
21582;DHT22;10952;50.836;4.348;2023-04-24T00:14:37;10.80;99.90
21582;DHT22;10952;50.836;4.348;2023-04-24T00:17:03;10.80;99.90
21582;DHT22;10952;50.836;4.348;2023-04-24T00:19:29;10.70;99.90
21582;DHT22;10952;50.836;4.348;2023-04-24T00:21:55;10.60;99.90
21582;DHT22;10952;50.836;4.348;2023-04-24T00:24:21;10.60;99.90
21582;DHT22;10952;50.836;4.348;2023-04-24T00:26:46;10.50;99.90
21582;DHT22;10952;50.836;4.348;2023-04-24T00:29:12;10.40;99.90
21582;DHT22;10952;50.836;4.348;2023-04-24T00:31:38;10.40;99.90
21582;DHT22;10952;50.836;4.348;2023-04-24T00:34:04;10.50;99.90
21582;DHT22;10952;50.836;4.348;2023-04-24T00:36:30;10.50;99.90
21582;DHT22;10952;50.836;4.348;2023-04-24T00:38:56;10.60;99.90
21582;DHT22;10952;50.836;4.348;2023-04-24T00:41:22;10.50;99.90
21582;DHT22;10952;50.836;4.348;2023-04-24T00:43:48;10.60;99.90
21582;DHT22;10952;50.836;4.348;2023-04-24T00:46:14;10.50;99.90
21582;DHT22;10952;50.836;4.348;2023-04-24T00:48:41;10.50;99.90
21582;DHT22;10952;50.836;4.348;2023-04-24T00:51:07;10.60;99.90
21582;DHT22;10952;50.836;4.348;2023-04-24T00:53:33;10.60;99.90
21582;DHT22;10952;50.836;4.348;2023-04-24T00:55:59;10.60;99.90
21582;DHT22;10952;50.836;4.348;2023-04-24T00:58:25;10.60;99.90
21582;DHT22;10952;50.836;4.348;2023-04-24T01:00:52;10.60;99.90
21582;DHT22;10952;50.836;4.348;2023-04-24T01:03:25;10.60;99.90
21582;DHT22;10952;50.836;4.348;2023-04-24T01:05:52;10.60;99.90
21582;DHT22;10952;50.836;4.348;2023-04-24T01:08:19;10.60;99.90
21582;DHT22;10952;50.836;4.348;2023-04-24T01:10:46;10.60;99.90
21582;DHT22;10952;50.836;4.348;2023-04-24T01:13:13;10.70;99.90
21582;DHT22;10952;50.836;4.348;2023-04-24T01:15:39;10.70;99.90
21582;DHT22;10952;50.836;4.348;2023-04-24T01:18:04;10.80;99.90
21582;DHT22;10952;50.836;4.348;2023-04-24T01:20:30;10.60;99.90
21582;DHT22;10952;50.836;4.348;2023-04-24T01:22:57;10.60;99.90
21582;DHT22;10952;50.836;4.348;2023-04-24T01:25:24;10.50;99.90
21582;DHT22;10952;50.836;4.348;2023-04-24T01:27:50;10.50;99.90
21582;DHT22;10952;50.836;4.348;2023-04-24T01:30:17;10.40;99.90
21582;DHT22;10952;50.836;4.348;2023-04-24T01:32:43;10.30;99.90
21582;DHT22;10952;50.836;4.348;2023-04-24T01:35:10;10.30;99.90
21582;DHT22;10952;50.836;4.348;2023-04-24T01:37:36;10.20;99.90
21582;DHT22;10952;50.836;4.348;2023-04-24T01:40:06;10.20;99.90
21582;DHT22;10952;50.836;4.348;2023-04-24T01:42:32;10.10;99.90
21582;DHT22;10952;50.836;4.348;2023-04-24T01:44:59;10.20;99.90
21582;DHT22;10952;50.836;4.348;2023-04-24T01:47:25;10.20;99.90
21582;DHT22;10952;50.836;4.348;2023-04-24T01:49:51;10.30;99.90
21582;DHT22;10952;50.836;4.348;2023-04-24T01:52:18;10.30;99.90
21582;DHT22;10952;50.836;4.348;2023-04-24T01:54:44;10.20;99.90
21582;DHT22;10952;50.836;4.348;2023-04-24T01:57:10;10.10;99.90
21582;DHT22;10952;50.836;4.348;2023-04-24T01:59:36;10.20;99.90
21582;DHT22;10952;50.836;4.348;2023-04-24T02:02:02;10.30;99.90
21582;DHT22;10952;50.836;4.348;2023-04-24T02:04:28;10.20;99.90
21582;DHT22;10952;50.836;4.348;2023-04-24T02:06:54;10.10;99.90
21582;DHT22;10952;50.836;4.348;2023-04-24T02:09:20;10.20;99.90
21582;DHT22;10952;50.836;4.348;2023-04-24T02:11:46;10.20;99.90
21582;DHT22;10952;50.836;4.348;2023-04-24T02:14:12;10.20;99.90
21582;DHT22;10952;50.836;4.348;2023-04-24T02:16:38;10.20;99.90
21582;DHT22;10952;50.836;4.348;2023-04-24T02:19:03;10.30;99.90
21582;DHT22;10952;50.836;4.348;2023-04-24T02:21:29;10.30;99.90
21582;DHT22;10952;50.836;4.348;2023-04-24T02:23:56;10.10;99.90
21582;DHT22;10952;50.836;4.348;2023-04-24T02:26:22;10.00;99.90
21582;DHT22;10952;50.836;4.348;2023-04-24T02:28:48;10.00;99.90
21582;DHT22;10952;50.836;4.348;2023-04-24T02:31:14;9.90;99.90
21582;DHT22;10952;50.836;4.348;2023-04-24T02:33:40;9.90;99.90
21582;DHT22;10952;50.836;4.348;2023-04-24T02:36:06;9.90;99.90
21582;DHT22;10952;50.836;4.348;2023-04-24T02:38:32;9.90;99.90
21582;DHT22;10952;50.836;4.348;2023-04-24T02:40:58;9.80;99.90
21582;DHT22;10952;50.836;4.348;2023-04-24T02:43:23;9.90;99.90
21582;DHT22;10952;50.836;4.348;2023-04-24T02:45:49;9.90;99.90
21582;DHT22;10952;50.836;4.348;2023-04-24T02:48:15;9.90;99.90
21582;DHT22;10952;50.836;4.348;2023-04-24T02:50:41;9.90;99.90
21582;DHT22;10952;50.836;4.348;2023-04-24T02:53:06;9.90;99.90
21582;DHT22;10952;50.836;4.348;2023-04-24T02:55:32;10.00;99.90
21582;DHT22;10952;50.836;4.348;2023-04-24T02:57:58;10.10;99.90
21582;DHT22;10952;50.836;4.348;2023-04-24T03:00:23;10.00;99.90
21582;DHT22;10952;50.836;4.348;2023-04-24T03:02:49;9.90;99.90
21582;DHT22;10952;50.836;4.348;2023-04-24T03:05:15;10.00;99.90
21582;DHT22;10952;50.836;4.348;2023-04-24T03:07:41;10.00;99.90
21582;DHT22;10952;50.836;4.348;2023-04-24T03:10:08;9.90;99.90
21582;DHT22;10952;50.836;4.348;2023-04-24T03:12:34;10.00;99.90
21582;DHT22;10952;50.836;4.348;2023-04-24T03:15:00;10.10;99.90
21582;DHT22;10952;50.836;4.348;2023-04-24T03:17:26;10.00;99.90
21582;DHT22;10952;50.836;4.348;2023-04-24T03:19:51;10.00;99.90
21582;DHT22;10952;50.836;4.348;2023-04-24T03:22:17;10.00;99.90
21582;DHT22;10952;50.836;4.348;2023-04-24T03:24:43;10.10;99.90
21582;DHT22;10952;50.836;4.348;2023-04-24T03:27:08;10.10;99.90
21582;DHT22;10952;50.836;4.348;2023-04-24T03:29:34;10.00;99.90
21582;DHT22;10952;50.836;4.348;2023-04-24T03:32:00;10.10;99.90
21582;DHT22;10952;50.836;4.348;2023-04-24T03:34:25;10.10;99.90
21582;DHT22;10952;50.836;4.348;2023-04-24T03:36:51;10.00;99.90
21582;DHT22;10952;50.836;4.348;2023-04-24T03:39:18;9.80;99.90
21582;DHT22;10952;50.836;4.348;2023-04-24T03:41:43;9.70;99.90
21582;DHT22;10952;50.836;4.348;2023-04-24T03:44:09;9.60;99.90
21582;DHT22;10952;50.836;4.348;2023-04-24T03:46:35;9.60;99.90
21582;DHT22;10952;50.836;4.348;2023-04-24T03:49:00;9.60;99.90
21582;DHT22;10952;50.836;4.348;2023-04-24T03:51:26;9.70;99.90
21582;DHT22;10952;50.836;4.348;2023-04-24T03:53:53;9.70;99.90
21582;DHT22;10952;50.836;4.348;2023-04-24T03:56:19;9.70;99.90
21582;DHT22;10952;50.836;4.348;2023-04-24T03:58:45;9.70;99.90
21582;DHT22;10952;50.836;4.348;2023-04-24T04:01:11;9.70;99.90
21582;DHT22;10952;50.836;4.348;2023-04-24T04:03:37;9.60;99.90
21582;DHT22;10952;50.836;4.348;2023-04-24T04:06:03;9.70;99.90
21582;DHT22;10952;50.836;4.348;2023-04-24T04:08:29;9.80;99.90
21582;DHT22;10952;50.836;4.348;2023-04-24T04:10:54;9.90;99.90
21582;DHT22;10952;50.836;4.348;2023-04-24T04:13:20;9.90;99.90
21582;DHT22;10952;50.836;4.348;2023-04-24T04:15:46;9.90;99.90
21582;DHT22;10952;50.836;4.348;2023-04-24T04:18:12;9.90;99.90
21582;DHT22;10952;50.836;4.348;2023-04-24T04:20:37;9.90;99.90
21582;DHT22;10952;50.836;4.348;2023-04-24T04:23:03;9.80;99.90
21582;DHT22;10952;50.836;4.348;2023-04-24T04:25:29;9.80;99.90
21582;DHT22;10952;50.836;4.348;2023-04-24T04:27:55;9.70;99.90
21582;DHT22;10952;50.836;4.348;2023-04-24T04:30:20;9.70;99.90
21582;DHT22;10952;50.836;4.348;2023-04-24T04:32:46;9.70;99.90
21582;DHT22;10952;50.836;4.348;2023-04-24T04:35:12;9.80;99.90
21582;DHT22;10952;50.836;4.348;2023-04-24T04:37:38;9.90;99.90
21582;DHT22;10952;50.836;4.348;2023-04-24T04:40:04;9.90;99.90
21582;DHT22;10952;50.836;4.348;2023-04-24T04:42:37;9.80;99.90
21582;DHT22;10952;50.836;4.348;2023-04-24T04:45:06;9.80;99.90
21582;DHT22;10952;50.836;4.348;2023-04-24T04:47:34;9.70;99.90
21582;DHT22;10952;50.836;4.348;2023-04-24T04:50:00;9.60;99.90
21582;DHT22;10952;50.836;4.348;2023-04-24T04:52:26;9.50;99.90
21582;DHT22;10952;50.836;4.348;2023-04-24T04:54:52;9.60;99.90
21582;DHT22;10952;50.836;4.348;2023-04-24T04:57:18;9.50;99.90
21582;DHT22;10952;50.836;4.348;2023-04-24T04:59:44;9.40;99.90
21582;DHT22;10952;50.836;4.348;2023-04-24T05:02:10;9.50;99.90
21582;DHT22;10952;50.836;4.348;2023-04-24T05:04:36;9.40;99.90
21582;DHT22;10952;50.836;4.348;2023-04-24T05:07:01;9.40;99.90
21582;DHT22;10952;50.836;4.348;2023-04-24T05:09:27;9.40;99.90
21582;DHT22;10952;50.836;4.348;2023-04-24T05:11:55;9.40;99.90
21582;DHT22;10952;50.836;4.348;2023-04-24T05:14:20;9.30;99.90
21582;DHT22;10952;50.836;4.348;2023-04-24T05:16:47;9.30;99.90
21582;DHT22;10952;50.836;4.348;2023-04-24T05:19:13;9.30;99.90
21582;DHT22;10952;50.836;4.348;2023-04-24T05:21:42;9.30;99.90
21582;DHT22;10952;50.836;4.348;2023-04-24T05:24:07;9.40;99.90
21582;DHT22;10952;50.836;4.348;2023-04-24T05:26:33;9.40;99.90
21582;DHT22;10952;50.836;4.348;2023-04-24T05:28:59;9.30;99.90
21582;DHT22;10952;50.836;4.348;2023-04-24T05:31:25;9.30;99.90
21582;DHT22;10952;50.836;4.348;2023-04-24T05:33:51;9.30;99.90
21582;DHT22;10952;50.836;4.348;2023-04-24T05:36:16;9.40;99.90
21582;DHT22;10952;50.836;4.348;2023-04-24T05:38:42;9.50;99.90
21582;DHT22;10952;50.836;4.348;2023-04-24T05:41:08;9.50;99.90
21582;DHT22;10952;50.836;4.348;2023-04-24T05:43:33;9.50;99.90
21582;DHT22;10952;50.836;4.348;2023-04-24T05:45:59;9.50;99.90
21582;DHT22;10952;50.836;4.348;2023-04-24T05:48:25;9.50;99.90
21582;DHT22;10952;50.836;4.348;2023-04-24T05:50:51;9.40;99.90
21582;DHT22;10952;50.836;4.348;2023-04-24T05:53:18;9.40;99.90
21582;DHT22;10952;50.836;4.348;2023-04-24T05:55:44;9.30;99.90
21582;DHT22;10952;50.836;4.348;2023-04-24T05:58:10;9.40;99.90
21582;DHT22;10952;50.836;4.348;2023-04-24T06:00:36;9.30;99.90
21582;DHT22;10952;50.836;4.348;2023-04-24T06:03:03;9.20;99.90
21582;DHT22;10952;50.836;4.348;2023-04-24T06:05:29;9.30;99.90
21582;DHT22;10952;50.836;4.348;2023-04-24T06:07:55;9.30;99.90
21582;DHT22;10952;50.836;4.348;2023-04-24T06:10:21;9.40;99.90
21582;DHT22;10952;50.836;4.348;2023-04-24T06:12:47;9.40;99.90
21582;DHT22;10952;50.836;4.348;2023-04-24T06:15:12;9.30;99.90
21582;DHT22;10952;50.836;4.348;2023-04-24T06:17:38;9.30;99.90
21582;DHT22;10952;50.836;4.348;2023-04-24T06:20:05;9.30;99.90
21582;DHT22;10952;50.836;4.348;2023-04-24T06:22:32;9.30;99.90
21582;DHT22;10952;50.836;4.348;2023-04-24T06:24:57;9.30;99.90
21582;DHT22;10952;50.836;4.348;2023-04-24T06:27:23;9.30;99.90
21582;DHT22;10952;50.836;4.348;2023-04-24T06:29:49;9.30;99.90
21582;DHT22;10952;50.836;4.348;2023-04-24T06:32:24;9.30;99.90
21582;DHT22;10952;50.836;4.348;2023-04-24T06:34:53;9.30;99.90
21582;DHT22;10952;50.836;4.348;2023-04-24T06:37:20;9.40;99.90
21582;DHT22;10952;50.836;4.348;2023-04-24T06:39:46;9.30;99.90
21582;DHT22;10952;50.836;4.348;2023-04-24T06:42:12;9.30;99.90
21582;DHT22;10952;50.836;4.348;2023-04-24T06:44:37;9.30;99.90
21582;DHT22;10952;50.836;4.348;2023-04-24T06:47:10;9.30;99.90
21582;DHT22;10952;50.836;4.348;2023-04-24T06:49:37;9.40;99.90
21582;DHT22;10952;50.836;4.348;2023-04-24T06:52:03;9.40;99.90
21582;DHT22;10952;50.836;4.348;2023-04-24T06:54:29;9.60;99.90
21582;DHT22;10952;50.836;4.348;2023-04-24T06:56:56;9.60;99.90
21582;DHT22;10952;50.836;4.348;2023-04-24T06:59:23;9.50;99.90
21582;DHT22;10952;50.836;4.348;2023-04-24T07:01:49;9.60;99.90
21582;DHT22;10952;50.836;4.348;2023-04-24T07:04:15;9.50;99.90
21582;DHT22;10952;50.836;4.348;2023-04-24T07:06:40;9.50;99.90
21582;DHT22;10952;50.836;4.348;2023-04-24T07:09:06;9.60;99.90
21582;DHT22;10952;50.836;4.348;2023-04-24T07:11:34;9.70;99.90
21582;DHT22;10952;50.836;4.348;2023-04-24T07:14:02;9.70;99.90
21582;DHT22;10952;50.836;4.348;2023-04-24T07:16:28;9.60;99.90
21582;DHT22;10952;50.836;4.348;2023-04-24T07:18:53;9.60;99.90
21582;DHT22;10952;50.836;4.348;2023-04-24T07:21:19;9.70;99.90
21582;DHT22;10952;50.836;4.348;2023-04-24T07:23:45;9.60;99.90
21582;DHT22;10952;50.836;4.348;2023-04-24T07:26:10;9.70;99.90
21582;DHT22;10952;50.836;4.348;2023-04-24T07:28:36;10.00;99.90
21582;DHT22;10952;50.836;4.348;2023-04-24T07:31:02;10.10;99.90
21582;DHT22;10952;50.836;4.348;2023-04-24T07:33:28;10.10;99.90
21582;DHT22;10952;50.836;4.348;2023-04-24T07:35:53;10.00;99.90
21582;DHT22;10952;50.836;4.348;2023-04-24T07:38:19;9.90;99.90
21582;DHT22;10952;50.836;4.348;2023-04-24T07:40:48;10.00;99.90
21582;DHT22;10952;50.836;4.348;2023-04-24T07:43:14;9.90;99.90
21582;DHT22;10952;50.836;4.348;2023-04-24T07:45:40;9.90;99.90
21582;DHT22;10952;50.836;4.348;2023-04-24T07:48:06;10.00;99.90
21582;DHT22;10952;50.836;4.348;2023-04-24T07:50:34;10.10;99.90
21582;DHT22;10952;50.836;4.348;2023-04-24T07:53:01;10.10;99.90
21582;DHT22;10952;50.836;4.348;2023-04-24T07:55:27;10.20;99.90
21582;DHT22;10952;50.836;4.348;2023-04-24T07:57:52;10.30;99.90
21582;DHT22;10952;50.836;4.348;2023-04-24T08:00:18;10.30;99.90
21582;DHT22;10952;50.836;4.348;2023-04-24T08:02:45;10.30;99.90
21582;DHT22;10952;50.836;4.348;2023-04-24T08:05:10;10.30;99.90
21582;DHT22;10952;50.836;4.348;2023-04-24T08:07:36;10.40;99.90
21582;DHT22;10952;50.836;4.348;2023-04-24T08:10:02;10.50;99.90
21582;DHT22;10952;50.836;4.348;2023-04-24T08:12:29;10.60;99.90
21582;DHT22;10952;50.836;4.348;2023-04-24T08:14:55;10.60;99.90
21582;DHT22;10952;50.836;4.348;2023-04-24T08:17:20;10.70;99.90
21582;DHT22;10952;50.836;4.348;2023-04-24T08:19:46;10.60;99.90
21582;DHT22;10952;50.836;4.348;2023-04-24T08:22:16;10.70;99.90
21582;DHT22;10952;50.836;4.348;2023-04-24T08:24:42;10.70;99.90
21582;DHT22;10952;50.836;4.348;2023-04-24T08:27:09;10.60;99.90
21582;DHT22;10952;50.836;4.348;2023-04-24T08:29:36;10.70;99.90
21582;DHT22;10952;50.836;4.348;2023-04-24T08:32:02;10.80;99.90
21582;DHT22;10952;50.836;4.348;2023-04-24T08:34:27;10.80;99.90
21582;DHT22;10952;50.836;4.348;2023-04-24T08:36:54;10.70;99.90
21582;DHT22;10952;50.836;4.348;2023-04-24T08:39:20;10.60;99.90
21582;DHT22;10952;50.836;4.348;2023-04-24T08:41:48;10.70;99.90
21582;DHT22;10952;50.836;4.348;2023-04-24T08:44:14;10.90;99.90
21582;DHT22;10952;50.836;4.348;2023-04-24T08:46:43;11.00;99.90
21582;DHT22;10952;50.836;4.348;2023-04-24T08:49:12;11.00;99.90
21582;DHT22;10952;50.836;4.348;2023-04-24T08:51:39;11.30;99.90
21582;DHT22;10952;50.836;4.348;2023-04-24T08:54:05;11.60;99.90
21582;DHT22;10952;50.836;4.348;2023-04-24T08:56:34;12.00;99.90
21582;DHT22;10952;50.836;4.348;2023-04-24T08:59:04;12.00;99.90
21582;DHT22;10952;50.836;4.348;2023-04-24T09:01:32;11.80;99.90
21582;DHT22;10952;50.836;4.348;2023-04-24T09:04:01;11.80;99.90
21582;DHT22;10952;50.836;4.348;2023-04-24T09:06:28;11.80;99.90
21582;DHT22;10952;50.836;4.348;2023-04-24T09:08:54;11.90;99.90
21582;DHT22;10952;50.836;4.348;2023-04-24T09:11:22;12.00;99.90
21582;DHT22;10952;50.836;4.348;2023-04-24T09:13:50;12.10;99.90
21582;DHT22;10952;50.836;4.348;2023-04-24T09:16:16;12.30;99.90
21582;DHT22;10952;50.836;4.348;2023-04-24T09:18:42;12.30;99.90
21582;DHT22;10952;50.836;4.348;2023-04-24T09:21:09;12.40;99.90
21582;DHT22;10952;50.836;4.348;2023-04-24T09:23:35;12.40;99.90
21582;DHT22;10952;50.836;4.348;2023-04-24T09:26:02;12.40;99.90
21582;DHT22;10952;50.836;4.348;2023-04-24T09:28:41;12.30;99.90
21582;DHT22;10952;50.836;4.348;2023-04-24T09:31:14;12.10;99.90
21582;DHT22;10952;50.836;4.348;2023-04-24T09:36:41;11.70;99.90
21582;DHT22;10952;50.836;4.348;2023-04-24T09:39:13;11.50;99.90
21582;DHT22;10952;50.836;4.348;2023-04-24T09:41:54;11.60;99.90
21582;DHT22;10952;50.836;4.348;2023-04-24T09:44:24;11.90;99.90
21582;DHT22;10952;50.836;4.348;2023-04-24T09:46:53;12.10;99.90
21582;DHT22;10952;50.836;4.348;2023-04-24T09:49:36;12.30;99.90
21582;DHT22;10952;50.836;4.348;2023-04-24T09:52:08;12.10;99.90
21582;DHT22;10952;50.836;4.348;2023-04-24T09:54:35;11.90;99.90
21582;DHT22;10952;50.836;4.348;2023-04-24T09:57:04;11.80;99.90
21582;DHT22;10952;50.836;4.348;2023-04-24T09:59:30;11.70;99.90
21582;DHT22;10952;50.836;4.348;2023-04-24T10:01:56;11.80;99.90
21582;DHT22;10952;50.836;4.348;2023-04-24T10:04:25;11.80;99.90
21582;DHT22;10952;50.836;4.348;2023-04-24T10:06:53;11.90;99.90
21582;DHT22;10952;50.836;4.348;2023-04-24T10:09:22;12.10;99.90
21582;DHT22;10952;50.836;4.348;2023-04-24T10:11:50;12.20;99.90
21582;DHT22;10952;50.836;4.348;2023-04-24T10:14:20;12.20;99.90
21582;DHT22;10952;50.836;4.348;2023-04-24T10:16:47;12.20;99.90
21582;DHT22;10952;50.836;4.348;2023-04-24T10:19:14;12.30;99.90
21582;DHT22;10952;50.836;4.348;2023-04-24T10:21:42;12.40;99.90
21582;DHT22;10952;50.836;4.348;2023-04-24T10:24:15;12.10;99.90
21582;DHT22;10952;50.836;4.348;2023-04-24T10:26:42;12.00;99.90
21582;DHT22;10952;50.836;4.348;2023-04-24T10:29:10;11.80;99.90
21582;DHT22;10952;50.836;4.348;2023-04-24T10:31:38;11.70;99.90
21582;DHT22;10952;50.836;4.348;2023-04-24T10:34:05;11.80;99.90
21582;DHT22;10952;50.836;4.348;2023-04-24T10:36:33;12.00;99.90
21582;DHT22;10952;50.836;4.348;2023-04-24T10:39:02;12.10;99.90
21582;DHT22;10952;50.836;4.348;2023-04-24T10:41:30;12.10;99.90
21582;DHT22;10952;50.836;4.348;2023-04-24T10:44:13;12.30;99.90
21582;DHT22;10952;50.836;4.348;2023-04-24T10:46:43;12.90;99.90
21582;DHT22;10952;50.836;4.348;2023-04-24T10:49:09;13.50;99.90
21582;DHT22;10952;50.836;4.348;2023-04-24T10:51:53;13.80;99.90
21582;DHT22;10952;50.836;4.348;2023-04-24T10:54:33;13.80;99.90
21582;DHT22;10952;50.836;4.348;2023-04-24T10:59:45;12.80;99.90
21582;DHT22;10952;50.836;4.348;2023-04-24T11:02:10;12.70;99.90
21582;DHT22;10952;50.836;4.348;2023-04-24T11:04:36;13.00;99.90
21582;DHT22;10952;50.836;4.348;2023-04-24T11:07:05;13.30;99.90
21582;DHT22;10952;50.836;4.348;2023-04-24T11:09:32;13.40;99.90
21582;DHT22;10952;50.836;4.348;2023-04-24T11:12:08;13.70;99.90
21582;DHT22;10952;50.836;4.348;2023-04-24T11:17:36;14.00;99.90
21582;DHT22;10952;50.836;4.348;2023-04-24T11:20:17;13.60;99.90
21582;DHT22;10952;50.836;4.348;2023-04-24T11:22:43;13.30;99.90
21582;DHT22;10952;50.836;4.348;2023-04-24T11:25:09;13.50;99.90
21582;DHT22;10952;50.836;4.348;2023-04-24T11:27:44;13.70;99.90
21582;DHT22;10952;50.836;4.348;2023-04-24T11:30:12;13.90;99.90
21582;DHT22;10952;50.836;4.348;2023-04-24T11:37:37;13.60;99.90
21582;DHT22;10952;50.836;4.348;2023-04-24T11:40:05;13.40;99.90
21582;DHT22;10952;50.836;4.348;2023-04-24T11:42:36;13.20;99.90
21582;DHT22;10952;50.836;4.348;2023-04-24T11:45:08;13.20;99.90
21582;DHT22;10952;50.836;4.348;2023-04-24T11:47:34;12.70;99.90
21582;DHT22;10952;50.836;4.348;2023-04-24T11:50:01;12.60;99.90
21582;DHT22;10952;50.836;4.348;2023-04-24T11:52:27;12.70;99.90
21582;DHT22;10952;50.836;4.348;2023-04-24T11:54:53;13.10;99.90
21582;DHT22;10952;50.836;4.348;2023-04-24T11:57:20;13.30;99.90
21582;DHT22;10952;50.836;4.348;2023-04-24T11:59:47;13.70;99.90
21582;DHT22;10952;50.836;4.348;2023-04-24T12:02:23;14.00;99.90
21582;DHT22;10952;50.836;4.348;2023-04-24T12:04:48;14.70;99.90
21582;DHT22;10952;50.836;4.348;2023-04-24T12:07:14;15.20;99.90
21582;DHT22;10952;50.836;4.348;2023-04-24T12:09:59;14.70;99.90
21582;DHT22;10952;50.836;4.348;2023-04-24T12:12:27;14.70;99.90
21582;DHT22;10952;50.836;4.348;2023-04-24T12:14:57;14.90;99.90
21582;DHT22;10952;50.836;4.348;2023-04-24T12:17:29;14.50;99.90
21582;DHT22;10952;50.836;4.348;2023-04-24T12:20:03;14.60;99.90
21582;DHT22;10952;50.836;4.348;2023-04-24T12:22:54;14.60;99.90
21582;DHT22;10952;50.836;4.348;2023-04-24T12:25:25;15.50;99.90
21582;DHT22;10952;50.836;4.348;2023-04-24T12:28:08;16.00;99.90
21582;DHT22;10952;50.836;4.348;2023-04-24T12:30:48;16.80;99.90
21582;DHT22;10952;50.836;4.348;2023-04-24T12:33:20;16.80;99.90
21582;DHT22;10952;50.836;4.348;2023-04-24T12:35:46;16.10;99.90
21582;DHT22;10952;50.836;4.348;2023-04-24T12:38:13;15.70;99.90
21582;DHT22;10952;50.836;4.348;2023-04-24T12:40:40;15.50;99.90
21582;DHT22;10952;50.836;4.348;2023-04-24T12:43:19;15.70;99.90
21582;DHT22;10952;50.836;4.348;2023-04-24T12:45:45;16.00;99.90
21582;DHT22;10952;50.836;4.348;2023-04-24T12:48:11;16.60;99.90
21582;DHT22;10952;50.836;4.348;2023-04-24T12:50:38;17.30;99.90
21582;DHT22;10952;50.836;4.348;2023-04-24T12:53:03;17.40;99.90
21582;DHT22;10952;50.836;4.348;2023-04-24T12:55:29;17.10;99.90
21582;DHT22;10952;50.836;4.348;2023-04-24T12:57:55;16.20;99.90
21582;DHT22;10952;50.836;4.348;2023-04-24T13:00:21;15.70;99.90
21582;DHT22;10952;50.836;4.348;2023-04-24T13:02:47;15.20;99.90
21582;DHT22;10952;50.836;4.348;2023-04-24T13:05:13;14.90;99.90
21582;DHT22;10952;50.836;4.348;2023-04-24T13:07:39;14.70;99.90
21582;DHT22;10952;50.836;4.348;2023-04-24T13:10:05;14.70;99.90
21582;DHT22;10952;50.836;4.348;2023-04-24T13:12:32;14.60;99.90
21582;DHT22;10952;50.836;4.348;2023-04-24T13:14:58;14.50;99.90
21582;DHT22;10952;50.836;4.348;2023-04-24T13:17:24;14.70;99.90
21582;DHT22;10952;50.836;4.348;2023-04-24T13:19:51;14.70;99.90
21582;DHT22;10952;50.836;4.348;2023-04-24T13:22:17;14.80;99.90
21582;DHT22;10952;50.836;4.348;2023-04-24T13:24:46;15.00;99.90
21582;DHT22;10952;50.836;4.348;2023-04-24T13:27:14;15.30;99.90
21582;DHT22;10952;50.836;4.348;2023-04-24T13:29:40;15.10;99.90
21582;DHT22;10952;50.836;4.348;2023-04-24T13:32:06;15.20;99.90
21582;DHT22;10952;50.836;4.348;2023-04-24T13:34:32;15.00;99.90
21582;DHT22;10952;50.836;4.348;2023-04-24T13:36:58;14.80;99.90
21582;DHT22;10952;50.836;4.348;2023-04-24T13:39:24;14.90;99.90
21582;DHT22;10952;50.836;4.348;2023-04-24T13:41:51;15.10;99.90
21582;DHT22;10952;50.836;4.348;2023-04-24T13:44:18;15.30;99.90
21582;DHT22;10952;50.836;4.348;2023-04-24T13:46:46;15.30;99.90
21582;DHT22;10952;50.836;4.348;2023-04-24T13:49:13;15.20;99.90
21582;DHT22;10952;50.836;4.348;2023-04-24T13:51:39;15.00;99.90
21582;DHT22;10952;50.836;4.348;2023-04-24T13:54:05;14.80;99.90
21582;DHT22;10952;50.836;4.348;2023-04-24T13:56:31;14.60;99.90
21582;DHT22;10952;50.836;4.348;2023-04-24T13:58:57;14.80;99.90
21582;DHT22;10952;50.836;4.348;2023-04-24T14:01:23;15.00;99.90
21582;DHT22;10952;50.836;4.348;2023-04-24T14:03:51;15.30;99.90
21582;DHT22;10952;50.836;4.348;2023-04-24T14:06:17;15.20;99.90
21582;DHT22;10952;50.836;4.348;2023-04-24T14:08:43;15.10;99.90
21582;DHT22;10952;50.836;4.348;2023-04-24T14:11:09;15.00;99.90
21582;DHT22;10952;50.836;4.348;2023-04-24T14:13:36;14.80;99.90
21582;DHT22;10952;50.836;4.348;2023-04-24T14:16:03;14.90;99.90
21582;DHT22;10952;50.836;4.348;2023-04-24T14:18:29;15.00;99.90
21582;DHT22;10952;50.836;4.348;2023-04-24T14:20:54;14.90;99.90
21582;DHT22;10952;50.836;4.348;2023-04-24T14:23:20;14.80;99.90
21582;DHT22;10952;50.836;4.348;2023-04-24T14:25:46;14.50;99.90
21582;DHT22;10952;50.836;4.348;2023-04-24T14:28:13;14.30;99.90
21582;DHT22;10952;50.836;4.348;2023-04-24T14:30:39;14.20;99.90
21582;DHT22;10952;50.836;4.348;2023-04-24T14:33:06;14.10;99.90
21582;DHT22;10952;50.836;4.348;2023-04-24T14:35:31;14.00;99.90
21582;DHT22;10952;50.836;4.348;2023-04-24T14:37:59;13.90;99.90
21582;DHT22;10952;50.836;4.348;2023-04-24T14:40:25;13.90;99.90
21582;DHT22;10952;50.836;4.348;2023-04-24T14:42:51;13.90;99.90
21582;DHT22;10952;50.836;4.348;2023-04-24T14:45:17;14.10;99.90
21582;DHT22;10952;50.836;4.348;2023-04-24T14:47:43;14.00;99.90
21582;DHT22;10952;50.836;4.348;2023-04-24T14:50:09;13.80;99.90
21582;DHT22;10952;50.836;4.348;2023-04-24T14:52:35;13.80;99.90
21582;DHT22;10952;50.836;4.348;2023-04-24T14:55:01;13.80;99.90
21582;DHT22;10952;50.836;4.348;2023-04-24T14:57:27;13.70;99.90
21582;DHT22;10952;50.836;4.348;2023-04-24T14:59:53;13.70;99.90
21582;DHT22;10952;50.836;4.348;2023-04-24T15:02:18;13.90;99.90
21582;DHT22;10952;50.836;4.348;2023-04-24T15:04:44;13.80;99.90
21582;DHT22;10952;50.836;4.348;2023-04-24T15:07:10;13.70;99.90
21582;DHT22;10952;50.836;4.348;2023-04-24T15:09:35;13.70;99.90
21582;DHT22;10952;50.836;4.348;2023-04-24T15:12:01;13.80;99.90
21582;DHT22;10952;50.836;4.348;2023-04-24T15:14:27;13.80;99.90
21582;DHT22;10952;50.836;4.348;2023-04-24T15:16:53;13.70;99.90
21582;DHT22;10952;50.836;4.348;2023-04-24T15:19:18;13.60;99.90
21582;DHT22;10952;50.836;4.348;2023-04-24T15:21:44;13.50;99.90
21582;DHT22;10952;50.836;4.348;2023-04-24T15:24:10;13.40;99.90
21582;DHT22;10952;50.836;4.348;2023-04-24T15:26:36;13.30;99.90
21582;DHT22;10952;50.836;4.348;2023-04-24T15:29:02;13.40;99.90
21582;DHT22;10952;50.836;4.348;2023-04-24T15:31:27;13.30;99.90
21582;DHT22;10952;50.836;4.348;2023-04-24T15:33:53;13.40;99.90
21582;DHT22;10952;50.836;4.348;2023-04-24T15:36:19;13.50;99.90
21582;DHT22;10952;50.836;4.348;2023-04-24T15:38:47;13.40;99.90
21582;DHT22;10952;50.836;4.348;2023-04-24T15:41:13;13.40;99.90
21582;DHT22;10952;50.836;4.348;2023-04-24T15:43:38;13.20;99.90
21582;DHT22;10952;50.836;4.348;2023-04-24T15:46:07;13.10;99.90